createdAt,value
2019-03-13T00:00:10.769Z,81.00
2019-03-13T00:02:41.175Z,81.70
2019-03-13T00:05:10.909Z,82.10
2019-03-13T00:07:40.239Z,81.90
2019-03-13T00:10:11.205Z,81.80
2019-03-13T00:12:40.614Z,82.80
2019-03-13T00:15:10.292Z,83.50
2019-03-13T00:17:39.633Z,83.90
2019-03-13T00:20:10.052Z,84.20
2019-03-13T00:22:39.394Z,84.70
2019-03-13T00:25:08.858Z,85.00
2019-03-13T00:27:38.190Z,86.20
2019-03-13T00:30:07.846Z,87.00
2019-03-13T00:32:37.184Z,86.90
2019-03-13T00:35:06.658Z,87.90
2019-03-13T00:37:36.023Z,87.90
2019-03-13T00:40:05.892Z,88.30
2019-03-13T00:42:35.240Z,88.80
2019-03-13T00:45:04.680Z,89.10
2019-03-13T00:47:34.817Z,90.00
2019-03-13T00:50:05.111Z,90.30
2019-03-13T00:52:34.542Z,90.80
2019-03-13T00:55:04.095Z,90.80
2019-03-13T00:57:33.426Z,90.80
2019-03-13T01:00:02.972Z,90.80
2019-03-13T01:02:38.402Z,91.10
2019-03-13T01:05:12.127Z,91.30
2019-03-13T01:07:41.783Z,91.80
2019-03-13T01:10:11.732Z,92.20
2019-03-13T01:12:41.279Z,92.60
2019-03-13T01:15:11.018Z,93.40
2019-03-13T01:17:40.351Z,94.00
2019-03-13T01:20:10.524Z,94.80
2019-03-13T01:22:39.938Z,95.40
2019-03-13T01:25:10.258Z,96.90
2019-03-13T01:27:39.591Z,98.10
2019-03-13T01:30:10.583Z,99.50
2019-03-13T01:32:49.995Z,99.90
2019-03-13T01:35:44.104Z,99.90
2019-03-13T01:38:13.449Z,99.90
2019-03-13T01:40:42.786Z,99.90
2019-03-13T01:43:12.134Z,99.90
2019-03-13T01:45:41.459Z,99.90
2019-03-13T01:48:10.863Z,99.90
2019-03-13T01:50:40.198Z,99.90
2019-03-13T01:53:09.750Z,99.90
2019-03-13T01:55:39.147Z,99.90
2019-03-13T01:58:08.696Z,99.90
2019-03-13T02:00:38.413Z,99.90
2019-03-13T02:03:07.746Z,99.90
2019-03-13T02:05:37.346Z,99.90
2019-03-13T02:08:06.947Z,99.90
2019-03-13T02:10:36.277Z,99.90
2019-03-13T02:13:05.606Z,99.90
2019-03-13T02:15:34.946Z,99.90
2019-03-13T02:18:04.600Z,99.90
2019-03-13T02:20:34.210Z,99.90
2019-03-13T02:23:03.546Z,99.90
2019-03-13T02:25:32.947Z,99.90
2019-03-13T02:28:02.267Z,99.90
2019-03-13T02:30:32.699Z,99.90
2019-03-13T02:33:02.106Z,99.90
2019-03-13T02:35:31.716Z,99.90
2019-03-13T02:38:01.122Z,99.90
2019-03-13T02:40:30.535Z,99.90
2019-03-13T02:42:59.951Z,99.90
2019-03-13T02:45:29.352Z,99.90
2019-03-13T02:47:58.768Z,99.90
2019-03-13T02:50:28.217Z,99.90
2019-03-13T02:52:57.540Z,99.90
2019-03-13T02:55:26.944Z,99.90
2019-03-13T02:57:56.532Z,99.90
2019-03-13T03:00:48.043Z,99.90
2019-03-13T03:03:31.168Z,99.90
2019-03-13T03:06:01.379Z,99.90
2019-03-13T03:08:30.787Z,99.90
2019-03-13T03:11:00.205Z,99.90
2019-03-13T03:13:29.669Z,99.90
2019-03-13T03:38:17.688Z,99.90
2019-03-13T03:40:47.027Z,99.90
2019-03-13T03:43:16.438Z,99.90
2019-03-13T03:45:45.835Z,99.90
2019-03-13T03:48:15.170Z,99.90
2019-03-13T03:50:44.565Z,99.90
2019-03-13T03:53:13.917Z,99.90
2019-03-13T03:55:43.290Z,99.90
2019-03-13T03:58:12.679Z,99.90
2019-03-13T04:00:42.091Z,99.90
2019-03-13T04:03:11.422Z,99.90
2019-03-13T04:05:41.339Z,99.90
2019-03-13T04:08:10.768Z,99.90
2019-03-13T04:10:40.154Z,99.90
2019-03-13T04:13:09.496Z,99.90
2019-03-13T04:15:38.830Z,99.90
2019-03-13T04:18:08.168Z,99.90
2019-03-13T04:20:37.584Z,99.90
2019-03-13T04:23:06.984Z,99.90
2019-03-13T04:25:37.787Z,99.90
2019-03-13T04:28:07.918Z,99.90
2019-03-13T04:30:37.328Z,99.90
2019-03-13T04:33:06.715Z,99.90
2019-03-13T04:35:36.045Z,99.90
2019-03-13T04:38:05.444Z,99.90
2019-03-13T04:40:34.775Z,99.90
2019-03-13T04:43:04.118Z,99.90
2019-03-13T04:45:33.469Z,99.90
2019-03-13T04:48:02.843Z,99.90
2019-03-13T04:50:32.187Z,99.90
2019-03-13T04:53:01.589Z,99.90
2019-03-13T04:55:30.914Z,99.90
2019-03-13T04:58:00.250Z,99.90
2019-03-13T05:00:29.662Z,99.90
2019-03-13T05:02:58.982Z,99.90
2019-03-13T05:05:57.354Z,99.90
2019-03-13T05:08:44.517Z,99.90
2019-03-13T05:11:04.938Z,99.90
2019-03-13T05:13:34.378Z,99.90
2019-03-13T05:16:03.719Z,99.90
2019-03-13T05:18:33.058Z,99.90
2019-03-13T05:21:02.400Z,99.90
2019-03-13T05:23:31.742Z,99.90
2019-03-13T05:26:01.067Z,99.90
2019-03-13T05:28:30.400Z,99.90
2019-03-13T05:30:59.730Z,99.90
2019-03-13T05:33:29.063Z,99.90
2019-03-13T05:35:58.426Z,99.90
2019-03-13T05:38:27.758Z,99.90
2019-03-13T05:40:57.123Z,99.90
2019-03-13T05:43:26.474Z,99.90
2019-03-13T05:45:56.185Z,99.90
2019-03-13T05:48:25.509Z,99.90
2019-03-13T05:50:54.852Z,99.90
2019-03-13T05:53:24.269Z,99.90
2019-03-13T05:55:53.651Z,99.90
2019-03-13T05:58:23.262Z,99.90
2019-03-13T06:00:52.601Z,99.90
2019-03-13T06:03:22.006Z,99.90
2019-03-13T06:05:51.423Z,99.90
2019-03-13T06:08:20.835Z,99.90
2019-03-13T06:10:50.163Z,99.90
2019-03-13T06:13:19.770Z,99.90
2019-03-13T06:15:49.111Z,99.90
2019-03-13T06:18:18.446Z,99.90
2019-03-13T06:20:47.778Z,99.90
2019-03-13T06:23:17.118Z,99.90
2019-03-13T06:25:46.446Z,99.90
2019-03-13T06:28:15.780Z,99.90
2019-03-13T06:30:45.102Z,99.90
2019-03-13T06:33:14.428Z,99.90
2019-03-13T06:35:43.766Z,99.90
2019-03-13T06:38:13.108Z,99.90
2019-03-13T06:40:42.515Z,99.90
2019-03-13T06:43:11.842Z,99.90
2019-03-13T06:45:41.459Z,99.90
2019-03-13T06:48:10.811Z,99.90
2019-03-13T06:50:40.223Z,99.90
2019-03-13T06:53:09.545Z,99.90
2019-03-13T06:55:38.876Z,99.90
2019-03-13T06:58:08.199Z,99.90
2019-03-13T07:01:11.793Z,99.90
2019-03-13T07:04:15.333Z,99.90
2019-03-13T07:06:54.123Z,99.90
2019-03-13T07:09:42.387Z,99.90
2019-03-13T07:12:48.675Z,99.90
2019-03-13T07:15:29.475Z,99.90
2019-03-13T07:18:17.742Z,99.90
2019-03-13T07:21:17.997Z,99.90
2019-03-13T07:23:56.274Z,99.90
2019-03-13T07:26:45.663Z,99.90
2019-03-13T07:29:33.989Z,99.90
2019-03-13T07:32:22.274Z,99.90
2019-03-13T07:35:16.507Z,99.90
2019-03-13T07:38:04.134Z,99.90
2019-03-13T07:41:01.374Z,99.90
2019-03-13T07:43:42.501Z,99.90
2019-03-13T07:46:45.851Z,99.90
2019-03-13T07:49:34.122Z,99.90
2019-03-13T07:52:37.435Z,99.90
2019-03-13T07:55:29.310Z,99.90
2019-03-13T07:58:16.373Z,99.90
2019-03-13T08:01:03.510Z,99.90
2019-03-13T08:03:43.523Z,99.90
2019-03-13T08:06:31.810Z,99.90
2019-03-13T08:09:16.896Z,99.90
2019-03-13T08:11:53.734Z,99.90
2019-03-13T08:14:42.923Z,99.90
2019-03-13T08:17:27.163Z,99.90
2019-03-13T08:20:18.396Z,99.90
2019-03-13T08:23:00.585Z,99.90
2019-03-13T08:26:03.955Z,99.90
2019-03-13T08:28:50.385Z,99.90
2019-03-13T08:31:38.727Z,99.90
2019-03-13T08:34:32.958Z,99.90
2019-03-13T08:37:17.491Z,99.90
2019-03-13T08:39:53.115Z,99.90
2019-03-13T08:42:43.095Z,99.90
2019-03-13T08:45:34.806Z,99.90
2019-03-13T08:48:26.274Z,99.90
2019-03-13T08:51:13.229Z,99.90
2019-03-13T08:54:13.502Z,99.90
2019-03-13T08:56:53.023Z,99.90
2019-03-13T08:59:34.550Z,99.90
2019-03-13T09:02:19.801Z,99.90
2019-03-13T09:04:56.236Z,99.90
2019-03-13T09:07:43.245Z,99.90
2019-03-13T09:10:36.297Z,99.90
2019-03-13T09:13:22.015Z,99.90
2019-03-13T09:16:10.278Z,99.90
2019-03-13T09:19:13.544Z,99.90
2019-03-13T09:21:58.116Z,99.90
2019-03-13T09:24:55.622Z,99.90
2019-03-13T09:27:42.351Z,99.90
2019-03-13T09:30:29.007Z,99.90
2019-03-13T09:33:32.033Z,99.90
2019-03-13T09:36:20.326Z,99.90
2019-03-13T09:38:58.458Z,99.90
2019-03-13T09:41:46.732Z,99.90
2019-03-13T09:44:28.534Z,99.90
2019-03-13T09:47:19.542Z,99.90
2019-03-13T09:50:06.453Z,99.90
2019-03-13T09:52:52.899Z,99.90
2019-03-13T09:55:46.390Z,99.90
2019-03-13T09:58:34.654Z,99.90
2019-03-13T10:01:10.871Z,99.90
2019-03-13T10:03:45.923Z,99.90
2019-03-13T10:06:37.270Z,99.90
2019-03-13T10:09:33.378Z,99.90
2019-03-13T10:12:30.667Z,99.90
2019-03-13T10:15:08.315Z,99.90
2019-03-13T10:18:05.747Z,99.90
2019-03-13T10:20:54.371Z,99.90
2019-03-13T10:23:41.542Z,99.90
2019-03-13T10:26:21.051Z,99.90
2019-03-13T10:29:11.682Z,99.90
2019-03-13T10:32:06.191Z,99.90
2019-03-13T10:34:53.198Z,99.90
2019-03-13T10:37:53.599Z,99.90
2019-03-13T10:40:40.526Z,99.90
2019-03-13T10:43:34.954Z,99.90
2019-03-13T10:46:23.221Z,99.90
2019-03-13T10:49:11.594Z,99.90
2019-03-13T10:51:57.679Z,99.90
2019-03-13T10:54:53.172Z,99.90
2019-03-13T10:57:39.840Z,99.90
2019-03-13T11:00:34.550Z,99.90
2019-03-13T11:03:25.567Z,99.90
2019-03-13T11:06:01.650Z,99.90
2019-03-13T11:08:52.712Z,99.90
2019-03-13T11:11:49.607Z,99.90
2019-03-13T11:14:37.867Z,99.90
2019-03-13T11:17:16.990Z,99.90
2019-03-13T11:20:02.802Z,99.90
2019-03-13T11:22:53.939Z,99.90
2019-03-13T11:25:32.979Z,99.90
2019-03-13T11:28:24.253Z,99.90
2019-03-13T11:31:12.579Z,99.90
2019-03-13T11:33:59.455Z,99.90
2019-03-13T11:36:36.082Z,99.90
2019-03-13T11:39:24.890Z,99.90
2019-03-13T11:42:14.845Z,99.90
2019-03-13T11:45:06.110Z,99.90
2019-03-13T11:47:57.390Z,99.90
2019-03-13T11:51:00.714Z,99.90
2019-03-13T11:54:07.632Z,99.90
2019-03-13T11:56:49.347Z,99.90
2019-03-13T11:59:36.454Z,99.90
2019-03-13T12:02:42.778Z,99.90
2019-03-13T12:05:26.266Z,99.90
2019-03-13T12:08:29.759Z,99.90
2019-03-13T12:11:17.857Z,99.90
2019-03-13T12:14:09.251Z,99.90
2019-03-13T12:16:48.887Z,99.90
2019-03-13T12:19:49.287Z,99.90
2019-03-13T12:22:48.698Z,99.90
2019-03-13T12:25:32.754Z,99.90
2019-03-13T12:28:26.835Z,99.90
2019-03-13T12:31:21.575Z,99.90
2019-03-13T12:34:19.267Z,99.90
2019-03-13T12:37:11.289Z,99.90
2019-03-13T12:39:47.999Z,99.90
2019-03-13T12:42:42.127Z,99.90
2019-03-13T12:45:35.218Z,99.90
2019-03-13T12:48:32.464Z,99.90
2019-03-13T12:51:29.494Z,99.90
2019-03-13T12:54:32.631Z,99.90
2019-03-13T12:57:14.331Z,99.90
2019-03-13T12:59:53.667Z,99.90
2019-03-13T13:02:40.534Z,99.90
2019-03-13T13:05:28.067Z,99.90
2019-03-13T13:08:16.338Z,99.90
2019-03-13T13:11:02.562Z,99.90
2019-03-13T13:13:49.601Z,99.90
2019-03-13T13:16:49.956Z,99.90
2019-03-13T13:19:19.758Z,99.90
2019-03-13T13:21:49.082Z,99.90
2019-03-13T13:24:18.412Z,99.90
2019-03-13T13:26:50.202Z,99.90
2019-03-13T13:29:18.859Z,99.90
2019-03-13T13:31:48.198Z,99.90
2019-03-13T13:34:17.583Z,99.90
2019-03-13T13:36:46.927Z,99.90
2019-03-13T13:39:16.277Z,99.90
2019-03-13T13:41:45.682Z,99.90
2019-03-13T13:44:15.037Z,99.90
2019-03-13T13:46:44.754Z,99.90
2019-03-13T13:49:14.156Z,99.90
2019-03-13T13:51:43.502Z,99.90
2019-03-13T13:54:12.862Z,99.90
2019-03-13T13:56:42.233Z,99.90
2019-03-13T13:59:11.572Z,99.90
2019-03-13T14:01:40.982Z,99.90
2019-03-13T14:04:10.437Z,99.90
2019-03-13T14:06:39.763Z,99.90
2019-03-13T14:09:09.181Z,99.90
2019-03-13T14:11:38.582Z,99.90
2019-03-13T14:14:07.910Z,99.90
2019-03-13T14:16:37.246Z,99.90
2019-03-13T14:19:06.580Z,99.90
2019-03-13T14:21:36.060Z,99.90
2019-03-13T14:24:05.410Z,99.90
2019-03-13T14:26:34.760Z,99.90
2019-03-13T14:29:04.082Z,99.90
2019-03-13T14:31:33.408Z,99.90
2019-03-13T14:34:02.731Z,99.90
2019-03-13T14:36:32.122Z,99.90
2019-03-13T14:39:01.553Z,99.90
2019-03-13T14:41:30.900Z,99.90
2019-03-13T14:44:00.639Z,99.90
2019-03-13T14:46:30.011Z,99.90
2019-03-13T14:48:59.353Z,99.90
2019-03-13T14:51:28.742Z,99.90
2019-03-13T14:53:58.090Z,99.90
2019-03-13T14:56:27.423Z,99.90
2019-03-13T14:58:56.761Z,99.90
2019-03-13T15:01:26.095Z,99.90
2019-03-13T15:03:55.419Z,99.90
2019-03-13T15:06:24.835Z,99.90
2019-03-13T15:08:54.225Z,99.90
2019-03-13T15:11:23.565Z,99.90
2019-03-13T15:13:53.019Z,99.90
2019-03-13T15:16:22.507Z,99.90
2019-03-13T15:18:51.842Z,99.90
2019-03-13T15:21:21.211Z,99.90
2019-03-13T15:23:50.539Z,99.90
2019-03-13T15:26:19.874Z,99.90
2019-03-13T15:28:49.211Z,99.90
2019-03-13T15:31:18.546Z,99.90
2019-03-13T15:33:47.913Z,99.90
2019-03-13T15:36:17.245Z,99.90
2019-03-13T15:38:46.584Z,99.90
2019-03-13T15:41:16.003Z,99.90
2019-03-13T15:43:45.354Z,99.90
2019-03-13T15:46:14.971Z,99.90
2019-03-13T15:48:44.315Z,99.90
2019-03-13T15:51:13.633Z,99.90
2019-03-13T15:53:42.963Z,99.90
2019-03-13T15:56:12.326Z,99.90
2019-03-13T15:58:41.706Z,99.90
2019-03-13T16:01:11.031Z,99.90
2019-03-13T16:03:40.616Z,99.90
2019-03-13T16:06:09.946Z,99.90
2019-03-13T16:08:39.434Z,99.90
2019-03-13T16:11:08.763Z,99.90
2019-03-13T16:13:38.088Z,99.90
2019-03-13T16:16:07.458Z,99.90
2019-03-13T16:18:36.787Z,99.90
2019-03-13T16:21:06.115Z,99.90
2019-03-13T16:23:35.541Z,99.90
2019-03-13T16:26:05.070Z,99.90
2019-03-13T16:28:34.391Z,99.90
2019-03-13T16:31:03.735Z,99.90
2019-03-13T16:33:33.063Z,99.90
2019-03-13T16:36:02.392Z,99.90
2019-03-13T16:38:32.063Z,99.90
2019-03-13T16:41:01.403Z,99.90
2019-03-13T16:43:30.747Z,99.90
2019-03-13T16:46:00.490Z,99.90
2019-03-13T16:48:29.900Z,99.90
2019-03-13T16:50:59.237Z,99.90
2019-03-13T16:53:28.810Z,99.90
2019-03-13T16:55:58.148Z,99.90
2019-03-13T16:58:27.472Z,99.90
2019-03-13T17:00:56.807Z,99.90
2019-03-13T17:03:26.357Z,99.90
2019-03-13T17:05:55.763Z,99.90
2019-03-13T17:08:25.089Z,99.90
2019-03-13T17:10:54.419Z,99.90
2019-03-13T17:13:24.026Z,99.90
2019-03-13T17:15:53.367Z,99.90
2019-03-13T17:18:22.782Z,99.90
2019-03-13T17:20:52.398Z,99.90
2019-03-13T17:23:21.734Z,99.90
2019-03-13T17:25:51.206Z,99.90
2019-03-13T17:28:20.539Z,99.90
2019-03-13T17:30:49.865Z,99.90
2019-03-13T17:33:19.197Z,99.90
2019-03-13T17:35:48.598Z,99.90
2019-03-13T17:38:17.918Z,99.90
2019-03-13T17:40:47.251Z,99.90
2019-03-13T17:43:16.655Z,99.90
2019-03-13T17:45:45.974Z,99.90
2019-03-13T17:48:16.849Z,99.90
2019-03-13T17:50:46.253Z,99.90
2019-03-13T17:53:16.063Z,99.90
2019-03-13T17:55:45.493Z,99.90
2019-03-13T17:58:14.912Z,99.90
2019-03-13T18:00:49.007Z,99.90
2019-03-13T18:03:18.346Z,99.90
2019-03-13T18:05:48.971Z,99.90
2019-03-13T18:08:18.288Z,99.90
2019-03-13T18:10:47.615Z,99.90
2019-03-13T18:13:17.072Z,99.90
2019-03-13T18:15:46.490Z,99.90
2019-03-13T18:18:15.823Z,99.90
2019-03-13T18:20:45.150Z,99.90
2019-03-13T18:23:14.544Z,99.90
2019-03-13T18:25:43.935Z,99.90
2019-03-13T18:28:13.271Z,99.90
2019-03-13T18:30:42.604Z,99.90
2019-03-13T18:33:11.924Z,99.90
2019-03-13T18:35:41.256Z,99.90
2019-03-13T18:38:10.642Z,99.90
2019-03-13T18:40:39.980Z,99.90
2019-03-13T18:43:09.390Z,99.90
2019-03-13T18:45:38.726Z,99.90
2019-03-13T18:48:08.071Z,99.90
2019-03-13T18:50:37.386Z,99.90
2019-03-13T18:53:06.715Z,99.90
2019-03-13T18:55:36.084Z,99.90
2019-03-13T18:58:05.743Z,99.90
2019-03-13T19:00:35.157Z,99.90
2019-03-13T19:03:04.870Z,99.90
2019-03-13T19:05:34.240Z,99.90
2019-03-13T19:08:03.650Z,99.90
2019-03-13T19:10:32.986Z,99.90
2019-03-13T19:13:02.416Z,99.90
2019-03-13T19:15:31.911Z,99.90
2019-03-13T19:18:01.467Z,99.90
2019-03-13T19:20:31.191Z,99.90
2019-03-13T19:23:00.574Z,99.90
2019-03-13T19:25:29.898Z,99.90
2019-03-13T19:27:59.220Z,99.90
2019-03-13T19:30:29.583Z,99.90
2019-03-13T19:32:58.902Z,99.90
2019-03-13T19:35:28.429Z,99.90
2019-03-13T19:37:57.963Z,99.90
2019-03-13T19:40:27.286Z,99.90
2019-03-13T19:42:56.612Z,99.90
2019-03-13T19:45:28.814Z,99.90
2019-03-13T19:48:01.143Z,99.90
2019-03-13T19:50:29.412Z,99.90
2019-03-13T19:52:58.733Z,99.90
2019-03-13T19:55:28.054Z,99.90
2019-03-13T19:57:57.502Z,99.90
2019-03-13T20:00:26.937Z,99.90
2019-03-13T20:03:00.265Z,99.90
2019-03-13T20:05:27.576Z,99.90
2019-03-13T20:07:56.998Z,99.90
2019-03-13T20:10:26.400Z,99.90
2019-03-13T20:12:55.863Z,99.90
2019-03-13T20:15:25.415Z,99.90
2019-03-13T20:17:54.738Z,99.90
2019-03-13T20:20:24.186Z,99.90
2019-03-13T20:22:56.979Z,99.90
2019-03-13T20:25:26.130Z,99.90
2019-03-13T20:27:55.530Z,99.90
2019-03-13T20:30:24.884Z,99.90
2019-03-13T20:32:54.282Z,99.90
2019-03-13T20:35:23.641Z,99.90
2019-03-13T20:37:53.012Z,99.90
2019-03-13T20:40:22.647Z,99.90
2019-03-13T20:42:52.078Z,99.90
2019-03-13T20:45:22.513Z,99.90
2019-03-13T20:47:51.958Z,99.90
2019-03-13T20:50:35.126Z,99.90
2019-03-13T20:52:52.884Z,99.90
2019-03-13T20:55:22.223Z,99.90
2019-03-13T20:57:51.554Z,99.90
2019-03-13T21:00:24.655Z,99.90
2019-03-13T21:02:54.326Z,99.90
2019-03-13T21:05:23.827Z,99.90
2019-03-13T21:07:53.259Z,99.90
2019-03-13T21:10:22.670Z,99.90
2019-03-13T21:12:52.003Z,99.90
2019-03-13T21:15:21.384Z,99.90
2019-03-13T21:17:50.707Z,99.90
2019-03-13T21:20:20.282Z,99.90
2019-03-13T21:22:49.603Z,99.90
2019-03-13T21:25:18.947Z,99.90
2019-03-13T21:27:48.390Z,99.90
2019-03-13T21:30:22.130Z,99.90
2019-03-13T21:32:51.515Z,99.90
2019-03-13T21:35:21.006Z,99.90
2019-03-13T21:37:50.322Z,99.90
2019-03-13T21:40:19.677Z,99.90
2019-03-13T21:42:49.039Z,99.90
2019-03-13T21:45:22.949Z,99.90
2019-03-13T21:47:49.550Z,99.90
2019-03-13T21:50:20.011Z,99.90
2019-03-13T21:52:49.442Z,99.90
2019-03-13T21:55:18.808Z,99.90
2019-03-13T21:57:51.707Z,99.90
2019-03-13T22:00:21.231Z,99.90
2019-03-13T22:02:50.732Z,99.90
2019-03-13T22:05:25.537Z,99.90
2019-03-13T22:07:51.391Z,99.90
2019-03-13T22:10:21.011Z,99.90
2019-03-13T22:12:50.536Z,99.90
2019-03-13T22:15:19.966Z,99.90
2019-03-13T22:17:49.295Z,99.90
2019-03-13T22:20:18.640Z,99.90
2019-03-13T22:22:47.998Z,99.90
2019-03-13T22:25:17.578Z,99.90
2019-03-13T22:27:46.907Z,99.90
2019-03-13T22:30:21.042Z,99.90
2019-03-13T22:32:50.358Z,99.90
2019-03-13T22:35:19.670Z,99.90
2019-03-13T22:37:49.425Z,99.90
2019-03-13T22:40:19.101Z,99.90
2019-03-13T22:42:48.506Z,99.90
2019-03-13T22:45:17.854Z,99.90
2019-03-13T22:47:47.261Z,99.90
2019-03-13T22:50:17.462Z,99.90
2019-03-13T22:52:46.800Z,99.90
2019-03-13T22:55:16.286Z,99.90
2019-03-13T22:57:45.602Z,99.90
2019-03-13T23:00:35.994Z,99.90
2019-03-13T23:03:05.323Z,99.90
2019-03-13T23:05:36.100Z,99.90
2019-03-13T23:08:05.642Z,99.90
2019-03-13T23:10:35.192Z,99.90
2019-03-13T23:13:04.792Z,99.90
2019-03-13T23:15:34.105Z,99.90
2019-03-13T23:18:03.445Z,99.90
2019-03-13T23:20:32.843Z,99.90
2019-03-13T23:23:02.362Z,99.90
2019-03-13T23:25:32.004Z,99.90
2019-03-13T23:28:01.395Z,99.90
2019-03-13T23:30:30.719Z,99.90
2019-03-13T23:33:00.044Z,99.90
2019-03-13T23:35:29.449Z,99.90
2019-03-13T23:37:58.843Z,99.90
2019-03-13T23:40:28.160Z,99.90
2019-03-13T23:42:57.552Z,99.90
2019-03-13T23:45:26.879Z,99.90
2019-03-13T23:47:56.277Z,99.90
2019-03-13T23:50:25.678Z,99.90
2019-03-13T23:52:55.024Z,99.90
2019-03-13T23:55:24.413Z,99.90
2019-03-13T23:57:53.735Z,99.90
